Time;durP1;ratioP1;P1;durP2;ratioP2;P2;SDS_P1;SDS_P2;PMS_P1;PMS_P2;Temp;Humidity;BMP_temperature;BMP_pressure;BME280_temperature;BME280_humidity;BME280_pressure;Samples;Min_cycle;Max_cycle;Signal;HPM_P1;HPM_P2
2021/07/27 00:02:21;;;;;;;;;;;;;;;19.21;100.00;100394.94;5073568;28;20468;-64
2021/07/27 00:04:47;;;;;;;;;;;;;;;19.16;100.00;100408.41;5073369;28;19967;-64
2021/07/27 00:07:13;;;;;;;;;;;;;;;19.14;100.00;100402.25;5073131;28;20015;-64
2021/07/27 00:09:39;;;;;;;;;;;;;;;19.10;100.00;100395.41;5073390;28;20034;-64
2021/07/27 00:12:06;;;;;;;;;;;;;;;19.06;100.00;100389.41;5073397;28;19928;-64
2021/07/27 00:14:32;;;;;;;;;;;;;;;19.05;100.00;100389.63;5072132;28;20019;-70
2021/07/27 00:17:00;;;;;;;;;;;;;;;19.02;100.00;100393.59;5073073;28;20371;-70
2021/07/27 00:19:26;;;;;;;;;;;;;;;18.97;100.00;100389.72;5071784;28;19925;-69
2021/07/27 00:21:52;;;;;;;;;;;;;;;18.95;100.00;100386.28;5073527;28;20023;-70
2021/07/27 00:24:20;;;;;;;;;;;;;;;18.95;100.00;100386.28;5073160;28;19964;-70
2021/07/27 00:26:47;;;;;;;;;;;;;;;18.91;100.00;100383.06;5072549;28;20007;-70
2021/07/27 00:29:13;;;;;;;;;;;;;;;18.88;100.00;100376.06;5073045;28;19925;-70
2021/07/27 00:31:39;;;;;;;;;;;;;;;18.89;100.00;100382.38;5073022;28;20315;-69
2021/07/27 00:34:07;;;;;;;;;;;;;;;18.81;100.00;100383.28;5073168;28;20366;-69
2021/07/27 00:36:33;;;;;;;;;;;;;;;18.78;100.00;100391.91;5072211;28;19986;-69
2021/07/27 00:38:59;;;;;;;;;;;;;;;18.72;100.00;100389.94;5072737;28;19967;-69
2021/07/27 00:41:25;;;;;;;;;;;;;;;18.68;100.00;100396.81;5072582;28;20028;-69
2021/07/27 00:43:52;;;;;;;;;;;;;;;18.63;100.00;100391.06;5072683;28;19963;-70
2021/07/27 00:46:18;;;;;;;;;;;;;;;18.59;100.00;100398.81;5072317;28;20015;-69
2021/07/27 00:48:44;;;;;;;;;;;;;;;18.56;100.00;100394.53;5072175;28;19970;-69
2021/07/27 00:51:12;;;;;;;;;;;;;;;18.54;100.00;100393.84;5072780;28;19925;-69
2021/07/27 00:53:38;;;;;;;;;;;;;;;18.51;100.00;100393.38;5071252;28;20011;-70
2021/07/27 00:56:05;;;;;;;;;;;;;;;18.51;100.00;100391.47;5072456;28;20039;-70
2021/07/27 00:58:31;;;;;;;;;;;;;;;18.48;100.00;100386.34;5072302;28;19978;-69
2021/07/27 01:00:58;;;;;;;;;;;;;;;18.47;100.00;100381.91;5071129;28;20034;-70
2021/07/27 01:03:24;;;;;;;;;;;;;;;18.45;100.00;100386.72;5072423;28;19978;-69
2021/07/27 01:05:51;;;;;;;;;;;;;;;18.44;100.00;100390.53;5071002;28;19951;-69
2021/07/27 01:08:18;;;;;;;;;;;;;;;18.45;100.00;100386.72;5072220;28;20412;-70
2021/07/27 01:10:46;;;;;;;;;;;;;;;18.47;100.00;100390.13;5072150;28;20376;-70
2021/07/27 01:13:12;;;;;;;;;;;;;;;18.46;100.00;100390.31;5072435;28;20340;-70
2021/07/27 01:15:38;;;;;;;;;;;;;;;18.46;100.00;100382.09;5072041;28;20013;-70
2021/07/27 01:18:07;;;;;;;;;;;;;;;18.45;100.00;100383.13;5072110;28;19959;-70
2021/07/27 01:39:41;;;;;;;;;;;;;;;18.55;100.00;100383.72;5071454;28;20350;-69
2021/07/27 01:42:08;;;;;;;;;;;;;;;18.52;100.00;100379.44;5071915;28;20073;-64
2021/07/27 01:44:35;;;;;;;;;;;;;;;18.55;100.00;100392.81;5071714;28;19925;-64
2021/07/27 01:47:01;;;;;;;;;;;;;;;18.54;100.00;100391.09;5071132;28;19929;-64
2021/07/27 01:49:28;;;;;;;;;;;;;;;18.58;100.00;100391.59;5071430;28;19935;-64
2021/07/27 01:51:54;;;;;;;;;;;;;;;18.56;100.00;100394.53;5071752;28;19924;-64
2021/07/27 01:54:28;;;;;;;;;;;;;;;18.58;100.00;100403.44;5071688;28;19924;-64
2021/07/27 01:56:57;;;;;;;;;;;;;;;18.60;100.00;100399.66;5071253;28;19924;-64
2021/07/27 01:59:23;;;;;;;;;;;;;;;18.62;100.00;100397.59;5070376;28;20027;-64
2021/07/27 02:01:49;;;;;;;;;;;;;;;18.62;100.00;100403.06;5071472;28;20363;-64
2021/07/27 02:04:15;;;;;;;;;;;;;;;18.67;100.00;100406.13;5071625;28;19959;-64
2021/07/27 02:06:42;;;;;;;;;;;;;;;18.67;100.00;100406.13;5071252;28;20408;-64
2021/07/27 02:09:08;;;;;;;;;;;;;;;18.66;100.00;100397.00;5071731;28;19951;-65
2021/07/27 02:11:40;;;;;;;;;;;;;;;18.68;100.00;100402.31;5071613;28;19924;-64
2021/07/27 02:14:11;;;;;;;;;;;;;;;18.66;100.00;100390.66;5071478;28;20451;-64
2021/07/27 02:16:37;;;;;;;;;;;;;;;18.68;100.00;100397.69;5070980;28;19964;-64
2021/07/27 02:19:04;;;;;;;;;;;;;;;18.71;100.00;100394.56;5070123;28;20288;-64
2021/07/27 02:21:31;;;;;;;;;;;;;;;18.71;100.00;100394.56;5071578;28;19964;-64
2021/07/27 02:23:57;;;;;;;;;;;;;;;18.74;100.00;100388.69;5071211;28;19928;-64
2021/07/27 02:26:24;;;;;;;;;;;;;;;18.74;100.00;100393.34;5071505;28;20459;-64
2021/07/27 02:28:50;;;;;;;;;;;;;;;18.72;100.00;100396.28;5071294;28;19924;-64
2021/07/27 02:31:22;;;;;;;;;;;;;;;18.72;100.00;100404.53;5071383;28;19967;-64
2021/07/27 02:33:49;;;;;;;;;;;;;;;18.72;100.00;100406.44;5071214;28;20404;-64
2021/07/27 02:36:15;;;;;;;;;;;;;;;18.69;100.00;100407.66;5071211;28;19967;-64
2021/07/27 02:38:41;;;;;;;;;;;;;;;18.67;100.00;100401.47;5070006;28;19939;-64
2021/07/27 02:41:07;;;;;;;;;;;;;;;18.66;100.00;100399.75;5071338;28;19963;-69
2021/07/27 02:43:35;;;;;;;;;;;;;;;18.66;100.00;100396.16;5070558;28;21392;-70
2021/07/27 02:46:02;;;;;;;;;;;;;;;18.64;100.00;100388.13;5071118;28;19928;-70
2021/07/27 02:48:29;;;;;;;;;;;;;;;18.61;100.00;100395.88;5071358;28;20015;-68
2021/07/27 02:51:00;;;;;;;;;;;;;;;18.59;100.00;100390.56;5071238;28;19924;-65
2021/07/27 02:53:29;;;;;;;;;;;;;;;18.55;100.00;100386.47;5070910;28;19924;-65
2021/07/27 02:55:56;;;;;;;;;;;;;;;18.54;100.00;100380.09;5070892;28;20409;-65
2021/07/27 02:58:32;;;;;;;;;;;;;;;18.54;100.00;100384.75;5071120;28;19975;-65
2021/07/27 03:00:59;;;;;;;;;;;;;;;18.54;100.00;100384.75;5074785;28;19928;-65
2021/07/27 03:03:25;;;;;;;;;;;;;;;18.53;100.00;100383.91;5073482;28;20464;-65
2021/07/27 03:05:57;;;;;;;;;;;;;;;18.50;100.00;100387.00;5074545;28;19964;-65
2021/07/27 03:08:23;;;;;;;;;;;;;;;18.50;100.00;100388.91;5074656;28;19924;-65
2021/07/27 03:10:52;;;;;;;;;;;;;;;18.49;100.00;100392.69;5074364;28;19924;-65
2021/07/27 03:13:18;;;;;;;;;;;;;;;18.47;100.00;100392.88;5074622;28;19932;-65
2021/07/27 03:15:45;;;;;;;;;;;;;;;18.44;100.00;100392.41;5074417;28;19971;-66
2021/07/27 03:18:11;;;;;;;;;;;;;;;18.41;100.00;100396.34;5074387;28;19964;-65
2021/07/27 03:20:38;;;;;;;;;;;;;;;18.39;100.00;100392.97;5074338;28;20343;-65
2021/07/27 03:23:05;;;;;;;;;;;;;;;18.36;100.00;100393.34;5074466;28;20263;-65
2021/07/27 03:25:32;;;;;;;;;;;;;;;18.34;100.00;100388.00;5074314;28;20413;-64
2021/07/27 03:27:58;;;;;;;;;;;;;;;18.32;100.00;100394.72;5073974;28;19963;-65
2021/07/27 03:30:24;;;;;;;;;;;;;;;18.30;100.00;100391.31;5073070;28;19964;-65
2021/07/27 03:32:51;;;;;;;;;;;;;;;18.26;100.00;100390.81;5073705;28;19967;-65
2021/07/27 03:35:17;;;;;;;;;;;;;;;18.24;100.00;100395.66;5074138;28;20031;-65
2021/07/27 03:37:44;;;;;;;;;;;;;;;18.21;100.00;100402.38;5073964;28;20426;-65
2021/07/27 03:40:12;;;;;;;;;;;;;;;18.20;100.00;100402.56;5074384;28;20395;-69
2021/07/27 03:42:39;;;;;;;;;;;;;;;18.18;100.00;100408.22;5074143;28;20020;-69
2021/07/27 03:45:06;;;;;;;;;;;;;;;18.17;100.00;100406.53;5073688;28;19967;-65
2021/07/27 03:47:32;;;;;;;;;;;;;;;18.14;100.00;100406.88;5072551;28;20368;-65
2021/07/27 03:49:58;;;;;;;;;;;;;;;18.15;100.00;100419.56;5073464;28;19978;-65
2021/07/27 03:52:24;;;;;;;;;;;;;;;18.16;100.00;100418.53;5073975;28;19960;-68
2021/07/27 03:54:51;;;;;;;;;;;;;;;18.17;100.00;100417.50;5073641;28;20288;-68
2021/07/27 03:57:18;;;;;;;;;;;;;;;18.12;100.00;100419.94;5073687;28;20021;-68
2021/07/27 03:59:46;;;;;;;;;;;;;;;18.11;100.00;100425.63;5073688;28;19982;-68
2021/07/27 04:02:12;;;;;;;;;;;;;;;18.08;100.00;100424.09;5073618;28;19992;-69
2021/07/27 04:04:40;;;;;;;;;;;;;;;18.05;100.00;100422.56;5073500;28;19960;-64
2021/07/27 04:07:06;;;;;;;;;;;;;;;18.03;100.00;100427.38;5073075;28;20368;-69
2021/07/27 04:09:33;;;;;;;;;;;;;;;18.03;100.00;100426.53;5073740;28;19925;-64
2021/07/27 04:11:59;;;;;;;;;;;;;;;18.01;100.00;100425.84;5072774;28;19924;-64
2021/07/27 04:14:26;;;;;;;;;;;;;;;18.01;100.00;100428.56;5073514;28;19952;-64
2021/07/27 04:16:53;;;;;;;;;;;;;;;18.01;100.00;100439.56;5073339;28;20023;-64
2021/07/27 04:19:19;;;;;;;;;;;;;;;18.01;100.00;100434.94;5071991;28;20019;-63
2021/07/27 04:21:45;;;;;;;;;;;;;;;18.04;100.00;100442.81;5073757;28;20023;-61
2021/07/27 04:24:12;;;;;;;;;;;;;;;18.07;100.00;100439.69;5072819;28;20387;-60
2021/07/27 04:26:38;;;;;;;;;;;;;;;18.15;100.00;100437.94;5073063;28;19978;-68
2021/07/27 04:29:04;;;;;;;;;;;;;;;18.21;100.00;100437.19;5076994;28;19928;-70
2021/07/27 04:31:32;;;;;;;;;;;;;;;18.25;100.00;100441.28;5092241;28;19970;-61
2021/07/27 04:33:58;;;;;;;;;;;;;;;18.31;100.00;100447.97;5093293;28;19932;-61
2021/07/27 04:36:24;;;;;;;;;;;;;;;18.40;100.00;100446.88;5091138;28;19959;-60
2021/07/27 04:38:51;;;;;;;;;;;;;;;18.49;100.00;100450.41;5092847;28;19928;-69
2021/07/27 04:41:17;;;;;;;;;;;;;;;18.61;100.00;100439.84;5079452;28;19963;-69
2021/07/27 04:43:43;;;;;;;;;;;;;;;18.73;100.00;100446.59;5086304;28;19931;-61
2021/07/27 04:46:10;;;;;;;;;;;;;;;18.85;100.00;100436.91;5070642;28;19931;-61
2021/07/27 04:48:39;;;;;;;;;;;;;;;19.01;100.00;100441.41;5072688;28;19960;-68
2021/07/27 04:51:05;;;;;;;;;;;;;;;19.10;100.00;100438.56;5072561;28;20035;-68
2021/07/27 04:53:35;;;;;;;;;;;;;;;19.22;100.00;100432.41;5075245;28;19932;-68
2021/07/27 04:56:01;;;;;;;;;;;;;;;19.33;100.00;100435.75;5092617;28;19987;-68
2021/07/27 04:58:28;;;;;;;;;;;;;;;19.44;100.00;100440.78;5089209;28;20700;-68
2021/07/27 05:01:00;;;;;;;;;;;;;;;19.54;100.00;100448.75;5072380;28;19924;-68
2021/07/27 05:03:26;;;;;;;;;;;;;;;19.63;100.00;100444.84;5074308;28;19972;-61
2021/07/27 05:05:53;;;;;;;;;;;;;;;19.70;100.00;100448.53;5086822;28;19962;-61
2021/07/27 05:08:20;;;;;;;;;;;;;;;19.79;100.00;100445.66;5091878;28;19968;-61
2021/07/27 05:10:46;;;;;;;;;;;;;;;19.86;100.00;100439.25;5072046;28;20336;-61
2021/07/27 05:13:12;;;;;;;;;;;;;;;19.95;100.00;100448.25;5083448;28;19963;-61
2021/07/27 05:15:39;;;;;;;;;;;;;;;20.03;100.00;100456.41;5085840;28;19924;-60
2021/07/27 05:18:05;;;;;;;;;;;;;;;20.06;100.00;100441.38;5071458;28;20028;-61
2021/07/27 05:20:31;;;;;;;;;;;;;;;20.16;100.00;100444.69;5076135;28;19974;-61
2021/07/27 05:22:59;;;;;;;;;;;;;;;20.26;100.00;100444.38;5091791;28;20372;-61
2021/07/27 05:25:25;;;;;;;;;;;;;;;20.38;100.00;100450.22;5089256;28;19955;-61
2021/07/27 05:27:51;;;;;;;;;;;;;;;20.46;100.00;100433.56;5071853;28;20403;-62
2021/07/27 05:30:18;;;;;;;;;;;;;;;20.51;100.00;100441.22;5080078;28;19932;-61
2021/07/27 05:32:44;;;;;;;;;;;;;;;20.60;100.00;100441.94;5075236;28;19924;-61
2021/07/27 05:35:11;;;;;;;;;;;;;;;20.67;100.00;100451.13;5083161;28;19924;-61
2021/07/27 05:37:38;;;;;;;;;;;;;;;20.75;100.00;100439.97;5092065;28;20357;-61
2021/07/27 05:40:06;;;;;;;;;;;;;;;20.85;100.00;100437.75;5084332;28;19951;-62
2021/07/27 05:42:32;;;;;;;;;;;;;;;21.00;100.00;100445.09;5072812;28;19974;-61
2021/07/27 05:44:59;;;;;;;;;;;;;;;21.10;100.00;100445.59;5080994;28;19963;-63
2021/07/27 05:47:25;;;;;;;;;;;;;;;21.19;100.00;100438.88;5091906;28;20360;-62
2021/07/27 05:49:51;;;;;;;;;;;;;;;21.33;100.00;100439.78;5084612;28;19932;-62
2021/07/27 05:52:17;;;;;;;;;;;;;;;21.44;100.00;100426.50;5069261;28;20392;-62
2021/07/27 05:54:44;;;;;;;;;;;;;;;21.62;100.00;100425.97;5061230;28;19932;-62
2021/07/27 05:57:12;;;;;;;;;;;;;;;21.85;100.00;100420.13;5065072;28;20057;-62
2021/07/27 05:59:40;;;;;;;;;;;;;;;22.13;100.00;100422.78;5069238;28;19931;-61
2021/07/27 06:02:06;;;;;;;;;;;;;;;22.37;100.00;100423.28;5075114;28;20395;-62
2021/07/27 06:04:32;;;;;;;;;;;;;;;22.74;100.00;100418.19;5079957;28;20027;-62
2021/07/27 06:06:58;;;;;;;;;;;;;;;23.05;100.00;100413.94;5071669;28;20224;-62
2021/07/27 06:09:25;;;;;;;;;;;;;;;23.26;100.00;100409.25;5072616;28;20031;-62
2021/07/27 06:11:51;;;;;;;;;;;;;;;23.61;100.00;100418.13;5071234;28;19963;-62
2021/07/27 06:14:19;;;;;;;;;;;;;;;23.72;100.00;100428.50;5071314;28;20019;-63
2021/07/27 06:16:45;;;;;;;;;;;;;;;24.06;100.00;100425.59;5090423;28;20376;-62
2021/07/27 06:19:11;;;;;;;;;;;;;;;24.35;100.00;100423.31;5088386;28;20005;-62
2021/07/27 06:21:39;;;;;;;;;;;;;;;24.81;100.00;100436.00;5088171;28;20209;-62
2021/07/27 06:24:05;;;;;;;;;;;;;;;25.30;100.00;100433.44;5074083;28;19932;-62
2021/07/27 06:26:31;;;;;;;;;;;;;;;25.35;100.00;100428.09;5070522;28;20051;-66
2021/07/27 06:28:58;;;;;;;;;;;;;;;25.75;100.00;100437.91;5087349;28;19924;-66
2021/07/27 06:31:26;;;;;;;;;;;;;;;25.06;100.00;100424.06;5089599;28;19924;-64
2021/07/27 06:33:52;;;;;;;;;;;;;;;24.79;100.00;100443.72;5074971;28;19963;-66
2021/07/27 06:36:18;;;;;;;;;;;;;;;24.90;100.00;100447.69;5091180;28;19924;-66
2021/07/27 06:38:45;;;;;;;;;;;;;;;24.80;100.00;100444.56;5079152;28;20019;-66
2021/07/27 06:41:12;;;;;;;;;;;;;;;24.63;100.00;100447.06;5073538;28;19967;-69
2021/07/27 06:43:39;;;;;;;;;;;;;;;24.73;100.00;100450.16;5079071;28;19924;-69
2021/07/27 06:46:06;;;;;;;;;;;;;;;25.02;100.00;100434.78;5074139;28;19928;-69
2021/07/27 06:48:33;;;;;;;;;;;;;;;25.17;100.00;100437.19;5074756;28;19960;-68
2021/07/27 06:51:07;;;;;;;;;;;;;;;25.34;100.00;100442.19;5083774;28;19989;-68
2021/07/27 06:53:33;;;;;;;;;;;;;;;25.42;100.00;100452.16;5095314;28;20295;-68
2021/07/27 06:56:00;;;;;;;;;;;;;;;25.48;100.00;100454.88;5081861;28;19980;-68
2021/07/27 06:58:26;;;;;;;;;;;;;;;25.81;100.00;100452.78;5093354;28;19969;-69
2021/07/27 07:00:52;;;;;;;;;;;;;;;26.08;100.00;100447.75;5079429;28;20375;-69
2021/07/27 07:03:18;;;;;;;;;;;;;;;26.32;100.00;100447.88;5079603;28;20027;-69
2021/07/27 07:05:46;;;;;;;;;;;;;;;26.55;100.00;100447.09;5077096;28;20034;-69
2021/07/27 07:08:12;;;;;;;;;;;;;;;27.06;100.00;100445.66;5073887;28;19959;-69
2021/07/27 07:10:39;;;;;;;;;;;;;;;26.69;100.00;100450.53;5083741;28;19960;-69
2021/07/27 07:13:05;;;;;;;;;;;;;;;26.83;100.00;100452.03;5092919;28;19962;-69
2021/07/27 07:15:31;;;;;;;;;;;;;;;26.69;100.00;100447.75;5094384;28;20363;-69
2021/07/27 07:17:58;;;;;;;;;;;;;;;26.90;100.00;100458.34;5092691;28;20016;-65
2021/07/27 07:20:24;;;;;;;;;;;;;;;27.34;100.00;100458.00;5092996;28;19994;-65
2021/07/27 07:22:51;;;;;;;;;;;;;;;27.26;100.00;100466.75;5093987;28;19931;-65
2021/07/27 07:25:18;;;;;;;;;;;;;;;27.50;100.00;100464.81;5079818;28;19924;-65
2021/07/27 07:27:44;;;;;;;;;;;;;;;27.41;100.00;100452.34;5074687;28;19925;-68
2021/07/27 07:30:11;;;;;;;;;;;;;;;27.50;100.00;100459.25;5078229;28;20396;-69
2021/07/27 07:32:37;;;;;;;;;;;;;;;27.97;100.00;100454.69;5074034;28;20352;-65
2021/07/27 07:35:04;;;;;;;;;;;;;;;28.33;100.00;100459.06;5076444;28;19956;-65
2021/07/27 07:37:30;;;;;;;;;;;;;;;28.62;100.00;100459.03;5092250;28;19925;-69
2021/07/27 07:39:58;;;;;;;;;;;;;;;28.35;100.00;100462.44;5075161;28;19929;-69
2021/07/27 07:42:24;;;;;;;;;;;;;;;28.13;100.00;100459.50;5073567;28;19960;-65
2021/07/27 07:44:51;;;;;;;;;;;;;;;28.17;100.00;100457.91;5087560;28;19969;-65
2021/07/27 07:47:17;;;;;;;;;;;;;;;27.64;100.00;100459.00;5093563;28;20010;-65
2021/07/27 07:49:43;;;;;;;;;;;;;;;27.89;100.00;100458.69;5092020;28;19924;-65
2021/07/27 07:52:09;;;;;;;;;;;;;;;28.49;100.00;100457.41;5093470;28;19985;-65
2021/07/27 07:54:36;;;;;;;;;;;;;;;29.25;100.00;100459.00;5075421;28;19931;-66
2021/07/27 07:57:04;;;;;;;;;;;;;;;29.21;94.89;100455.88;5089032;28;20026;-69
2021/07/27 07:59:30;;;;;;;;;;;;;;;28.86;96.52;100451.41;5093491;28;20405;-69
2021/07/27 08:01:59;;;;;;;;;;;;;;;28.67;97.74;100461.09;5078724;28;20019;-65
2021/07/27 08:04:25;;;;;;;;;;;;;;;28.59;99.09;100456.72;5084872;28;19975;-65
2021/07/27 08:06:51;;;;;;;;;;;;;;;28.27;100.00;100456.41;5083107;28;19924;-69
2021/07/27 08:09:18;;;;;;;;;;;;;;;28.27;100.00;100450.84;5081962;28;20176;-70
2021/07/27 08:11:44;;;;;;;;;;;;;;;28.87;98.80;100447.47;5091882;28;20411;-71
2021/07/27 08:14:13;;;;;;;;;;;;;;;28.99;95.68;100447.41;5082298;28;20376;-71
2021/07/27 08:16:39;;;;;;;;;;;;;;;28.57;93.59;100450.56;5072816;28;19925;-71
2021/07/27 08:19:05;;;;;;;;;;;;;;;28.56;99.72;100446.91;5074221;28;20011;-66
2021/07/27 08:21:32;;;;;;;;;;;;;;;29.14;98.60;100441.19;5073283;28;19983;-66
2021/07/27 08:23:58;;;;;;;;;;;;;;;29.68;94.41;100437.00;5076705;28;19959;-68
2021/07/27 08:26:24;;;;;;;;;;;;;;;29.46;92.47;100443.38;5093225;28;19924;-66
2021/07/27 08:28:51;;;;;;;;;;;;;;;29.86;93.19;100441.44;5091493;28;19932;-66
2021/07/27 08:31:18;;;;;;;;;;;;;;;29.92;90.56;100442.34;5093357;28;20014;-68
2021/07/27 08:33:45;;;;;;;;;;;;;;;29.69;87.11;100438.66;5091187;28;19978;-68
2021/07/27 08:36:11;;;;;;;;;;;;;;;29.95;90.93;100439.03;5078148;28;20025;-69
2021/07/27 08:38:37;;;;;;;;;;;;;;;29.94;87.97;100442.94;5092700;28;19924;-70
2021/07/27 08:41:05;;;;;;;;;;;;;;;30.59;89.06;100443.09;5085704;28;19924;-70
2021/07/27 08:43:32;;;;;;;;;;;;;;;30.91;80.77;100445.06;5073428;28;20122;-71
2021/07/27 08:45:59;;;;;;;;;;;;;;;30.81;82.34;100435.47;5086151;28;19924;-71
2021/07/27 08:48:26;;;;;;;;;;;;;;;30.99;80.44;100441.78;5076433;28;19986;-71
2021/07/27 08:50:53;;;;;;;;;;;;;;;31.16;79.34;100438.84;5074688;28;20446;-70
2021/07/27 08:53:19;;;;;;;;;;;;;;;31.47;78.70;100448.31;5071345;28;19970;-70
2021/07/27 08:55:45;;;;;;;;;;;;;;;31.04;75.26;100447.44;5072374;28;19924;-69
2021/07/27 08:58:12;;;;;;;;;;;;;;;31.08;75.67;100442.16;5075710;28;19950;-69
2021/07/27 09:00:38;;;;;;;;;;;;;;;31.29;78.62;100443.16;5091205;28;19924;-66
2021/07/27 09:03:08;;;;;;;;;;;;;;;31.16;74.24;100447.25;5072183;28;19944;-66
2021/07/27 09:05:36;;;;;;;;;;;;;;;31.63;71.53;100446.47;5072119;28;20015;-66
2021/07/27 09:08:02;;;;;;;;;;;;;;;31.57;73.66;100455.09;5086409;28;20625;-70
2021/07/27 09:10:29;;;;;;;;;;;;;;;30.91;75.49;100464.69;5083762;28;19924;-70
2021/07/27 09:12:57;;;;;;;;;;;;;;;30.87;72.68;100451.22;5092296;28;20018;-70
2021/07/27 09:15:23;;;;;;;;;;;;;;;30.43;73.99;100450.50;5077203;28;19924;-69
2021/07/27 09:17:51;;;;;;;;;;;;;;;30.00;74.83;100455.91;5086393;28;19971;-70
2021/07/27 09:20:24;;;;;;;;;;;;;;;30.13;79.96;100455.50;5075568;28;20019;-70
2021/07/27 09:22:51;;;;;;;;;;;;;;;30.04;80.55;100457.91;5080156;28;19962;-66
2021/07/27 09:25:18;;;;;;;;;;;;;;;30.15;71.86;100458.88;5090586;28;20277;-65
2021/07/27 09:27:44;;;;;;;;;;;;;;;29.76;65.07;100461.72;5092150;28;20359;-65
2021/07/27 09:30:20;;;;;;;;;;;;;;;29.75;74.80;100459.19;5076877;28;19971;-66
2021/07/27 09:32:47;;;;;;;;;;;;;;;29.98;74.86;100449.72;5071694;28;19978;-66
2021/07/27 09:35:13;;;;;;;;;;;;;;;29.88;80.81;100448.47;5073097;28;19960;-66
2021/07/27 09:37:40;;;;;;;;;;;;;;;30.89;73.12;100463.00;5071730;28;20015;-66
2021/07/27 09:40:08;;;;;;;;;;;;;;;30.57;64.46;100462.97;5081429;28;20015;-65
2021/07/27 09:42:35;;;;;;;;;;;;;;;30.36;69.94;100459.09;5072635;28;20355;-66
2021/07/27 09:45:03;;;;;;;;;;;;;;;30.07;67.82;100461.28;5071340;28;20448;-65
2021/07/27 09:47:29;;;;;;;;;;;;;;;30.32;70.65;100467.19;5071615;28;19931;-66
2021/07/27 09:49:56;;;;;;;;;;;;;;;30.48;68.65;100461.75;5073521;28;20011;-66
2021/07/27 09:52:22;;;;;;;;;;;;;;;30.42;64.09;100455.22;5071714;28;19925;-65
2021/07/27 09:54:49;;;;;;;;;;;;;;;30.08;68.33;100466.63;5080236;28;20450;-66
2021/07/27 09:57:16;;;;;;;;;;;;;;;30.22;60.60;100459.50;5091484;28;19963;-65
2021/07/27 09:59:48;;;;;;;;;;;;;;;30.29;65.17;100461.25;5090040;28;20415;-65
2021/07/27 10:02:17;;;;;;;;;;;;;;;30.95;73.58;100466.69;5077649;28;19932;-65
2021/07/27 10:04:47;;;;;;;;;;;;;;;31.64;59.79;100455.72;5078050;28;19934;-65
2021/07/27 10:07:13;;;;;;;;;;;;;;;32.21;57.45;100454.03;5088550;28;19942;-70
2021/07/27 10:09:40;;;;;;;;;;;;;;;31.93;51.79;100455.31;5070857;28;20465;-64
2021/07/27 10:12:06;;;;;;;;;;;;;;;31.79;51.24;100466.16;5072495;28;19968;-65
2021/07/27 10:14:40;;;;;;;;;;;;;;;31.12;58.26;100469.41;5078418;28;20379;-66
2021/07/27 10:17:08;;;;;;;;;;;;;;;31.13;53.72;100457.03;5075663;28;19935;-70
2021/07/27 10:19:38;;;;;;;;;;;;;;;30.64;52.66;100454.34;5071302;28;20372;-66
2021/07/27 10:22:05;;;;;;;;;;;;;;;29.77;60.38;100451.34;5085601;28;19925;-66
2021/07/27 10:24:36;;;;;;;;;;;;;;;30.35;60.98;100460.22;5071229;28;19931;-70
2021/07/27 10:27:06;;;;;;;;;;;;;;;31.17;56.54;100457.38;5073846;28;19982;-66
2021/07/27 10:29:32;;;;;;;;;;;;;;;31.18;55.79;100465.50;5078040;28;19978;-66
2021/07/27 10:32:10;;;;;;;;;;;;;;;31.81;51.73;100456.38;5076642;28;20356;-65
2021/07/27 10:34:40;;;;;;;;;;;;;;;32.30;51.75;100459.97;5089723;28;20402;-71
2021/07/27 10:37:07;;;;;;;;;;;;;;;31.77;51.68;100460.84;5089334;28;19935;-71
2021/07/27 10:39:33;;;;;;;;;;;;;;;30.70;53.22;100461.72;5086380;28;19929;-71
2021/07/27 10:42:07;;;;;;;;;;;;;;;30.50;60.88;100463.19;5080417;28;20019;-70
2021/07/27 10:44:36;;;;;;;;;;;;;;;29.35;63.78;100473.13;5070585;28;19960;-69
2021/07/27 10:47:04;;;;;;;;;;;;;;;28.21;86.92;100488.94;5072017;28;19929;-70
2021/07/27 10:49:30;;;;;;;;;;;;;;;26.18;100.00;100487.00;5071975;28;20006;-69
2021/07/27 10:51:59;;;;;;;;;;;;;;;24.04;100.00;100494.31;5074722;28;20447;-70
2021/07/27 10:54:26;;;;;;;;;;;;;;;22.55;100.00;100513.94;5088078;28;20346;-71
2021/07/27 10:56:59;;;;;;;;;;;;;;;21.89;100.00;100526.41;5080082;28;19935;-71
2021/07/27 10:59:27;;;;;;;;;;;;;;;21.52;100.00;100543.13;5080858;28;20364;-72
2021/07/27 11:01:54;;;;;;;;;;;;;;;21.56;100.00;100549.13;5088822;28;19934;-71
2021/07/27 11:04:28;;;;;;;;;;;;;;;21.74;100.00;100560.53;5089591;28;20417;-71
2021/07/27 11:06:54;;;;;;;;;;;;;;;22.86;100.00;100542.94;5090854;28;19924;-71
2021/07/27 11:09:20;;;;;;;;;;;;;;;23.60;100.00;100534.66;5080281;28;20376;-72
2021/07/27 11:11:47;;;;;;;;;;;;;;;24.01;100.00;100509.44;5070712;28;20019;-72
2021/07/27 11:14:20;;;;;;;;;;;;;;;24.22;100.00;100496.34;5071784;28;19929;-72
2021/07/27 11:16:47;;;;;;;;;;;;;;;24.78;100.00;100499.47;5070655;28;20449;-72
2021/07/27 11:19:23;;;;;;;;;;;;;;;25.86;100.00;100498.25;5087305;28;20470;-68
2021/07/27 11:21:51;;;;;;;;;;;;;;;26.88;100.00;100485.59;5086507;28;20379;-67
2021/07/27 11:24:17;;;;;;;;;;;;;;;27.58;100.00;100483.13;5094487;28;20014;-70
2021/07/27 11:26:49;;;;;;;;;;;;;;;28.13;100.00;100469.78;5077237;28;20015;-71
2021/07/27 11:29:17;;;;;;;;;;;;;;;28.62;100.00;100477.72;5084515;28;19959;-70
2021/07/27 11:31:47;;;;;;;;;;;;;;;28.97;100.00;100466.38;5093966;28;19973;-70
2021/07/27 11:34:13;;;;;;;;;;;;;;;29.43;100.00;100455.09;5081519;28;19978;-70
2021/07/27 11:36:40;;;;;;;;;;;;;;;29.59;100.00;100453.38;5074834;28;20018;-70
2021/07/27 11:39:08;;;;;;;;;;;;;;;29.77;100.00;100452.22;5089726;28;19967;-71
2021/07/27 11:41:34;;;;;;;;;;;;;;;28.69;100.00;100459.75;5076384;28;20031;-72
2021/07/27 11:44:00;;;;;;;;;;;;;;;28.07;100.00;100449.31;5075730;28;19992;-66
2021/07/27 11:46:30;;;;;;;;;;;;;;;28.17;100.00;100455.13;5090494;28;20422;-66
2021/07/27 11:48:57;;;;;;;;;;;;;;;28.35;100.00;100450.44;5075886;28;19931;-66
2021/07/27 11:51:29;;;;;;;;;;;;;;;28.69;100.00;100459.75;5084575;28;19928;-66
2021/07/27 11:53:56;;;;;;;;;;;;;;;28.16;100.00;100453.41;5072777;28;20296;-66
2021/07/27 11:56:24;;;;;;;;;;;;;;;27.62;100.00;100452.78;5072964;28;20342;-67
2021/07/27 11:58:59;;;;;;;;;;;;;;;27.58;100.00;100455.25;5091100;28;19924;-67
2021/07/27 12:01:35;;;;;;;;;;;;;;;27.92;100.00;100460.16;5074381;28;20426;-65
2021/07/27 12:04:01;;;;;;;;;;;;;;;27.83;100.00;100445.72;5072379;28;19974;-71
2021/07/27 12:06:27;;;;;;;;;;;;;;;27.40;100.00;100448.69;5073534;28;19967;-71
2021/07/27 12:08:53;;;;;;;;;;;;;;;27.30;100.00;100444.78;5071281;28;19967;-71
2021/07/27 12:11:20;;;;;;;;;;;;;;;27.27;100.00;100442.50;5070475;28;19952;-71
2021/07/27 12:13:47;;;;;;;;;;;;;;;27.07;100.00;100438.13;5071781;28;19972;-71
2021/07/27 12:16:13;;;;;;;;;;;;;;;27.11;100.00;100439.38;5071819;28;20250;-71
2021/07/27 12:18:40;;;;;;;;;;;;;;;27.29;100.00;100438.38;5070461;28;20019;-66
2021/07/27 12:21:06;;;;;;;;;;;;;;;27.47;100.00;100436.59;5071706;28;19924;-70
2021/07/27 12:23:33;;;;;;;;;;;;;;;27.61;100.00;100431.63;5072984;28;20014;-70
2021/07/27 12:25:59;;;;;;;;;;;;;;;28.06;100.00;100423.38;5072836;28;19942;-65
2021/07/27 12:28:25;;;;;;;;;;;;;;;27.68;100.00;100426.75;5072805;28;20451;-65
2021/07/27 12:30:53;;;;;;;;;;;;;;;27.67;100.00;100427.81;5072809;28;19964;-66
2021/07/27 12:33:20;;;;;;;;;;;;;;;27.63;99.95;100430.25;5071522;28;20015;-65
2021/07/27 12:35:46;;;;;;;;;;;;;;;28.62;97.21;100419.09;5072676;28;19963;-66
2021/07/27 12:38:12;;;;;;;;;;;;;;;29.73;92.18;100415.53;5071611;28;20380;-72
2021/07/27 12:40:38;;;;;;;;;;;;;;;29.95;85.45;100419.47;5072947;28;19924;-70
2021/07/27 12:43:05;;;;;;;;;;;;;;;29.62;82.54;100418.44;5072571;28;20023;-70
2021/07/27 12:45:31;;;;;;;;;;;;;;;29.07;87.64;100421.00;5072449;28;19925;-70
2021/07/27 12:48:00;;;;;;;;;;;;;;;28.17;80.81;100418.84;5072316;28;20415;-69